Terminal Aerodrome Forecast
Issued by NWS

Home | Current Version | Previous Version | Text Only | Print | Product List | Glossary Off
Versions: 1 2 3 4 5 6 7 8 9 10 11 12 13 14 15 16

346
FTUS43 KABR 240413 AAA
TAFPIR
TAF AMD
KPIR 240413Z 2404/2424 18012KT P6SM FEW050 BKN080
      TEMPO 2404/2406 VRB25G35KT 4SM TSRA OVC040CB
     FM240600 18011KT P6SM VCSH BKN140
     FM240800 17010KT P6SM BKN200
     FM241100 16009KT P6SM SCT200 WS020/20035KT
     FM241400 16009KT P6SM SCT200
     FM241700 21010KT P6SM FEW250
     FM242300 27009KT P6SM FEW250=

USA.gov is the U.S. government's official web portal to all federal, state and local government web resources and services.